createdAt,value
2023-03-26T00:01:24.399Z,98970.59
2023-03-26T00:03:52.873Z,98974.38
2023-03-26T00:06:22.174Z,98976.91
2023-03-26T00:08:49.863Z,98978.47
2023-03-26T00:11:19.575Z,98974.41
2023-03-26T00:13:47.398Z,98978.31
2023-03-26T00:16:18.087Z,98969.69
2023-03-26T00:18:45.873Z,98971.91
2023-03-26T00:21:14.814Z,98969.56
2023-03-26T00:23:42.733Z,98978.88
2023-03-26T00:26:10.284Z,98979.88
2023-03-26T00:28:38.658Z,98980.25
2023-03-26T00:31:10.560Z,98973.97
2023-03-26T00:33:40.058Z,98985.66
2023-03-26T00:36:09.631Z,98986.00
2023-03-26T00:38:37.230Z,98986.50
2023-03-26T00:41:06.265Z,98987.50
2023-03-26T00:43:35.252Z,99000.72
2023-03-26T00:46:02.772Z,98999.22
2023-03-26T00:48:44.083Z,98995.31
2023-03-26T00:51:15.174Z,98992.78
2023-03-26T00:53:43.569Z,98988.72
2023-03-26T00:56:11.355Z,98983.78
2023-03-26T00:58:38.801Z,98986.81
2023-03-26T01:01:09.086Z,98978.91
2023-03-26T01:03:37.817Z,98976.00
2023-03-26T01:06:07.546Z,98977.88
2023-03-26T01:08:40.463Z,98973.66
2023-03-26T01:11:14.509Z,98975.66
2023-03-26T01:13:46.594Z,98970.25
2023-03-26T01:16:26.648Z,98974.31
2023-03-26T01:18:54.478Z,98974.69
2023-03-26T01:21:24.555Z,98979.72
2023-03-26T01:24:01.230Z,98975.34
2023-03-26T01:26:47.581Z,98964.03
2023-03-26T01:29:22.777Z,98963.16
2023-03-26T01:32:00.879Z,98952.72
2023-03-26T01:34:36.064Z,98958.47
2023-03-26T01:37:12.628Z,98961.66
2023-03-26T01:39:50.610Z,98958.28
2023-03-26T01:42:25.275Z,98962.19
2023-03-26T01:44:57.643Z,98959.31
2023-03-26T01:47:25.536Z,98949.47
2023-03-26T01:49:52.765Z,98947.63
2023-03-26T01:52:22.074Z,98942.22
2023-03-26T01:54:50.821Z,98938.31
2023-03-26T01:57:23.637Z,98935.78
2023-03-26T02:00:07.272Z,98929.72
2023-03-26T02:02:52.737Z,98933.44
2023-03-26T02:05:25.120Z,98930.03
2023-03-26T02:07:59.826Z,98924.94
2023-03-26T02:10:33.627Z,98924.28
2023-03-26T02:13:01.257Z,98924.94
2023-03-26T02:15:28.665Z,98923.09
2023-03-26T02:17:55.865Z,98915.81
2023-03-26T02:20:23.090Z,98915.97
2023-03-26T02:22:50.258Z,98915.59
2023-03-26T02:25:20.837Z,98909.16
2023-03-26T02:27:52.453Z,98913.03
2023-03-26T02:30:23.170Z,98909.97
2023-03-26T02:32:51.428Z,98913.34
2023-03-26T02:35:20.922Z,98913.34
2023-03-26T02:37:51.225Z,98912.50
2023-03-26T02:40:21.285Z,98908.09
2023-03-26T02:42:51.198Z,98897.63
2023-03-26T02:45:18.385Z,98900.34
2023-03-26T02:48:05.063Z,98895.25
2023-03-26T02:50:41.920Z,98889.03
2023-03-26T02:53:44.554Z,98890.56
2023-03-26T02:56:25.988Z,98884.44
2023-03-26T02:59:09.836Z,98878.88
2023-03-26T03:01:38.373Z,98876.69
2023-03-26T03:04:05.859Z,98884.94
2023-03-26T03:06:36.686Z,98875.84
2023-03-26T03:09:04.212Z,98872.47
2023-03-26T03:11:37.904Z,98866.72
2023-03-26T03:14:06.245Z,98876.47
2023-03-26T03:16:35.785Z,98871.59
2023-03-26T03:19:08.783Z,98865.47
2023-03-26T03:21:38.058Z,98861.97
2023-03-26T03:24:06.669Z,98865.13
2023-03-26T03:26:37.523Z,98863.28
2023-03-26T03:29:16.081Z,98861.41
2023-03-26T03:31:44.711Z,98858.38
2023-03-26T03:34:24.960Z,98865.13
2023-03-26T03:36:52.182Z,98857.50
2023-03-26T03:39:32.020Z,98856.53
2023-03-26T03:41:59.200Z,98855.00
2023-03-26T03:44:26.487Z,98860.22
2023-03-26T03:46:55.079Z,98859.53
2023-03-26T03:49:22.847Z,98853.97
2023-03-26T03:51:50.099Z,98849.75
2023-03-26T03:54:25.507Z,98845.53
2023-03-26T03:57:05.867Z,98839.44
2023-03-26T03:59:53.289Z,98842.63
2023-03-26T04:02:22.081Z,98842.41
2023-03-26T04:04:56.305Z,98831.78
2023-03-26T04:07:23.932Z,98836.78
2023-03-26T04:10:14.862Z,98830.72
2023-03-26T04:13:00.478Z,98836.97
2023-03-26T04:15:46.444Z,98828.69
2023-03-26T04:18:15.497Z,98834.22
2023-03-26T04:20:45.189Z,98826.13
2023-03-26T04:23:16.247Z,98829.00
2023-03-26T04:25:48.046Z,98823.91
2023-03-26T04:28:28.117Z,98814.63
2023-03-26T04:31:20.491Z,98823.59
2023-03-26T04:33:50.206Z,98819.88
2023-03-26T04:36:18.461Z,98810.59
2023-03-26T04:38:48.783Z,98806.75
2023-03-26T04:41:17.830Z,98797.31
2023-03-26T04:43:52.228Z,98792.94
2023-03-26T04:46:32.685Z,98798.53
2023-03-26T04:49:08.960Z,98795.53
2023-03-26T04:51:38.423Z,98789.28
2023-03-26T04:54:23.071Z,98789.63
2023-03-26T04:56:58.701Z,98782.06
2023-03-26T04:59:39.047Z,98785.94
2023-03-26T05:02:11.582Z,98783.25
2023-03-26T05:04:48.796Z,98780.22
2023-03-26T05:07:18.800Z,98780.22
2023-03-26T05:09:49.463Z,98776.19
2023-03-26T05:12:22.584Z,98767.22
2023-03-26T05:15:05.281Z,98759.97
2023-03-26T05:17:51.447Z,98759.13
2023-03-26T05:20:40.496Z,98751.22
2023-03-26T05:23:09.757Z,98739.72
2023-03-26T05:25:40.466Z,98732.28
2023-03-26T05:28:15.509Z,98734.47
2023-03-26T05:30:54.811Z,98731.44
2023-03-26T05:33:24.118Z,98726.22
2023-03-26T05:36:03.505Z,98727.22
2023-03-26T05:38:32.387Z,98725.19
2023-03-26T05:41:06.082Z,98710.81
2023-03-26T05:43:35.543Z,98704.19
2023-03-26T05:46:28.907Z,98706.72
2023-03-26T05:48:56.190Z,98698.59
2023-03-26T05:51:24.856Z,98699.59
2023-03-26T05:54:12.443Z,98688.06
2023-03-26T05:57:08.807Z,98691.44
2023-03-26T05:59:55.155Z,98688.00
2023-03-26T06:02:40.731Z,98683.41
2023-03-26T06:05:35.767Z,98680.84
2023-03-26T06:08:10.459Z,98677.25
2023-03-26T06:10:39.135Z,98671.69
2023-03-26T06:13:06.395Z,98668.34
2023-03-26T06:15:36.333Z,98659.19
2023-03-26T06:18:12.638Z,98658.63
2023-03-26T06:21:12.280Z,98648.63
2023-03-26T06:23:46.479Z,98644.38
2023-03-26T06:26:30.603Z,98638.53
2023-03-26T06:29:16.232Z,98645.22
2023-03-26T06:31:55.744Z,98645.75
2023-03-26T06:34:34.507Z,98628.84
2023-03-26T06:37:01.702Z,98635.97
2023-03-26T06:39:30.962Z,98628.97
2023-03-26T06:42:32.164Z,98627.06
2023-03-26T06:45:38.498Z,98623.16
2023-03-26T06:48:24.213Z,98623.63
2023-03-26T06:51:11.294Z,98623.44
2023-03-26T06:53:56.983Z,98626.09
2023-03-26T06:56:44.950Z,98627.22
2023-03-26T06:59:30.948Z,98619.38
2023-03-26T07:02:18.360Z,98606.13
2023-03-26T07:05:04.305Z,98614.06
2023-03-26T07:07:50.257Z,98613.19
2023-03-26T07:10:35.874Z,98600.38
2023-03-26T07:13:27.576Z,98606.56
2023-03-26T07:16:33.452Z,98597.22
2023-03-26T07:19:21.422Z,98596.75
2023-03-26T07:21:49.446Z,98584.38
2023-03-26T07:24:49.852Z,98586.63
2023-03-26T07:27:44.070Z,98581.66
2023-03-26T07:30:19.057Z,98578.13
2023-03-26T07:33:18.904Z,98563.72
2023-03-26T07:36:17.446Z,98561.84
2023-03-26T07:39:15.199Z,98560.97
2023-03-26T07:42:06.504Z,98552.16
2023-03-26T07:45:02.073Z,98551.00
2023-03-26T07:47:43.034Z,98542.53
2023-03-26T07:50:37.283Z,98541.63
2023-03-26T07:53:22.219Z,98541.81
2023-03-26T07:56:16.368Z,98538.97
2023-03-26T07:59:17.894Z,98534.59
2023-03-26T08:02:57.661Z,98534.91
2023-03-26T08:05:52.006Z,98521.50
2023-03-26T08:08:47.925Z,98523.97
2023-03-26T08:11:46.296Z,98522.69
2023-03-26T08:14:24.388Z,98517.72
2023-03-26T08:16:55.937Z,98511.88
2023-03-26T08:19:37.799Z,98506.06
2023-03-26T08:22:12.136Z,98505.63
2023-03-26T08:24:47.445Z,98498.53
2023-03-26T08:27:22.640Z,98499.25
2023-03-26T08:29:55.205Z,98497.63
2023-03-26T08:32:22.922Z,98501.59
2023-03-26T08:34:51.440Z,98504.75
2023-03-26T08:37:18.649Z,98495.25
2023-03-26T08:39:45.751Z,98503.88
2023-03-26T08:43:03.394Z,98495.00
2023-03-26T08:45:55.148Z,98501.50
2023-03-26T08:48:45.358Z,98492.13
2023-03-26T08:51:42.252Z,98490.19
2023-03-26T08:54:31.938Z,98487.28
2023-03-26T08:57:26.215Z,98484.53
2023-03-26T09:00:14.356Z,98482.84
2023-03-26T09:03:18.365Z,98484.94
2023-03-26T09:06:06.309Z,98488.72
2023-03-26T09:09:06.476Z,98489.97
2023-03-26T09:12:07.408Z,98491.19
2023-03-26T09:15:15.876Z,98491.38
2023-03-26T09:18:34.016Z,98497.53
2023-03-26T09:21:27.421Z,98491.72
2023-03-26T09:24:34.920Z,98499.72
2023-03-26T09:27:18.886Z,98494.72
2023-03-26T09:30:23.436Z,98486.16
2023-03-26T09:33:32.615Z,98482.59
2023-03-26T09:36:29.214Z,98479.03
2023-03-26T09:39:07.001Z,98477.16
2023-03-26T09:41:43.047Z,98482.97
2023-03-26T09:44:57.660Z,98470.41
2023-03-26T09:47:50.275Z,98468.72
2023-03-26T09:50:35.140Z,98462.28
2023-03-26T09:53:29.105Z,98458.72
2023-03-26T09:56:04.558Z,98453.72
2023-03-26T09:59:15.210Z,98443.28
2023-03-26T10:01:48.885Z,98442.78
2023-03-26T10:04:51.613Z,98445.59
2023-03-26T10:07:48.201Z,98441.03
2023-03-26T10:10:25.795Z,98438.53
2023-03-26T10:13:08.136Z,98441.28
2023-03-26T10:16:00.039Z,98438.56
2023-03-26T10:18:38.594Z,98430.81
2023-03-26T10:21:13.084Z,98433.13
2023-03-26T10:24:10.973Z,98433.97
2023-03-26T10:27:08.027Z,98424.53
2023-03-26T10:30:00.805Z,98421.63
2023-03-26T10:32:36.044Z,98417.84
2023-03-26T10:35:16.437Z,98417.84
2023-03-26T10:37:57.866Z,98407.31
2023-03-26T10:40:31.156Z,98413.81
2023-03-26T10:43:42.438Z,98414.19
2023-03-26T10:46:47.321Z,98412.31
2023-03-26T10:49:27.764Z,98417.38
2023-03-26T10:51:58.713Z,98420.75
2023-03-26T10:54:36.911Z,98415.34
2023-03-26T11:36:25.097Z,98371.16
2023-03-26T11:38:56.807Z,98361.75
2023-03-26T11:41:30.222Z,98356.22
2023-03-26T11:44:23.139Z,98354.16
2023-03-26T11:46:57.177Z,98343.97
2023-03-26T11:49:26.831Z,98353.34
2023-03-26T11:51:55.497Z,98350.03
2023-03-26T11:54:22.696Z,98342.53
2023-03-26T11:57:05.479Z,98344.59
2023-03-26T11:59:45.602Z,98340.56
2023-03-26T12:02:22.969Z,98338.84
2023-03-26T12:04:51.821Z,98338.13
2023-03-26T12:07:22.494Z,98334.13
2023-03-26T12:09:50.767Z,98326.69
2023-03-26T12:12:18.381Z,98325.16
2023-03-26T12:14:47.027Z,98313.44
2023-03-26T12:17:30.935Z,98319.63
2023-03-26T12:19:59.812Z,98314.59
2023-03-26T12:22:32.445Z,98308.66
2023-03-26T12:25:13.843Z,98310.47
2023-03-26T12:27:43.625Z,98309.19
2023-03-26T12:30:18.643Z,98302.66
2023-03-26T12:32:47.786Z,98303.50
2023-03-26T12:35:24.870Z,98293.56
2023-03-26T12:37:54.162Z,98286.13
2023-03-26T12:40:30.320Z,98286.13
2023-03-26T12:44:53.289Z,98283.06
2023-03-26T12:47:55.587Z,98287.63
2023-03-26T12:48:37.713Z,98281.75
2023-03-26T12:51:14.318Z,98271.81
2023-03-26T12:54:06.910Z,98282.66
2023-03-26T12:56:42.098Z,98279.91
2023-03-26T12:59:24.313Z,98282.59
2023-03-26T13:02:04.790Z,98285.31
2023-03-26T13:05:05.597Z,98270.84
2023-03-26T13:07:51.033Z,98275.75
2023-03-26T13:10:37.844Z,98278.00
2023-03-26T13:13:17.671Z,98278.13
2023-03-26T13:15:49.942Z,98284.81
2023-03-26T13:18:32.651Z,98283.56
2023-03-26T13:21:08.694Z,98269.38
2023-03-26T13:23:45.571Z,98261.38
2023-03-26T13:26:37.470Z,98265.66
2023-03-26T13:29:13.356Z,98264.56
2023-03-26T13:31:46.981Z,98256.66
2023-03-26T13:34:22.314Z,98258.94
2023-03-26T13:37:00.816Z,98263.22
2023-03-26T13:39:37.317Z,98248.53
2023-03-26T13:42:36.301Z,98236.88
2023-03-26T13:45:12.638Z,98240.22
2023-03-26T13:47:46.166Z,98247.25
2023-03-26T13:50:21.669Z,98239.84
2023-03-26T13:52:52.406Z,98245.22
2023-03-26T13:55:24.589Z,98241.53
2023-03-26T13:58:00.822Z,98237.44
2023-03-26T14:00:35.516Z,98229.72
2023-03-26T14:03:15.717Z,98221.06
2023-03-26T14:05:46.634Z,98220.25
2023-03-26T14:08:19.994Z,98214.03
2023-03-26T14:10:54.719Z,98208.44
2023-03-26T14:13:31.226Z,98204.63
2023-03-26T14:16:08.424Z,98199.50
2023-03-26T14:18:41.142Z,98194.25
2023-03-26T14:21:48.271Z,98201.50
2023-03-26T14:24:42.045Z,98194.22
2023-03-26T14:27:37.919Z,98180.13
2023-03-26T14:30:40.043Z,98192.69
2023-03-26T14:33:16.958Z,98184.13
2023-03-26T14:36:00.268Z,98182.84
2023-03-26T14:38:57.887Z,98183.50
2023-03-26T14:41:29.533Z,98190.06
2023-03-26T14:44:25.661Z,98178.66
2023-03-26T14:47:14.776Z,98188.00
2023-03-26T14:50:19.678Z,98186.81
2023-03-26T14:52:48.606Z,98175.38
2023-03-26T14:55:27.136Z,98177.34
2023-03-26T14:58:11.631Z,98199.41
2023-03-26T15:01:14.269Z,98177.16
2023-03-26T15:04:24.282Z,98162.81
2023-03-26T15:07:24.379Z,98156.50
2023-03-26T15:10:27.609Z,98153.97
2023-03-26T15:13:07.558Z,98146.50
2023-03-26T15:16:19.152Z,98142.47
2023-03-26T15:19:50.790Z,98151.75
2023-03-26T15:22:55.261Z,98151.81
2023-03-26T15:25:50.681Z,98154.69
2023-03-26T15:29:14.789Z,98147.69
2023-03-26T15:32:08.756Z,98145.53
2023-03-26T15:34:57.038Z,98143.66
2023-03-26T15:38:00.997Z,98134.63
2023-03-26T15:40:47.602Z,98150.53
2023-03-26T15:43:16.152Z,98148.63
2023-03-26T15:45:47.869Z,98149.78
2023-03-26T15:48:36.540Z,98153.84
2023-03-26T15:51:22.964Z,98148.28
2023-03-26T15:53:57.807Z,98144.53
2023-03-26T15:56:40.917Z,98139.53
2023-03-26T15:59:23.317Z,98148.50
2023-03-26T16:01:58.439Z,98140.75
2023-03-26T16:04:39.333Z,98142.13
2023-03-26T16:07:28.526Z,98157.44
2023-03-26T16:10:12.387Z,98155.94
2023-03-26T16:12:53.132Z,98161.00
2023-03-26T16:15:29.639Z,98194.72
2023-03-26T16:18:17.662Z,98200.53
2023-03-26T16:20:46.913Z,98200.28
2023-03-26T16:23:24.544Z,98215.31
2023-03-26T16:26:00.136Z,98240.81
2023-03-26T16:29:05.549Z,98251.94
2023-03-26T16:31:37.749Z,98242.56
2023-03-26T16:34:24.872Z,98236.16
2023-03-26T16:36:52.918Z,98219.78
2023-03-26T16:39:23.529Z,98228.31
2023-03-26T16:42:25.146Z,98230.56
2023-03-26T16:45:08.538Z,98244.84
2023-03-26T16:47:44.727Z,98255.66
2023-03-26T16:50:21.436Z,98260.31
2023-03-26T16:52:54.709Z,98256.16
2023-03-26T16:55:28.199Z,98264.34
2023-03-26T16:58:07.684Z,98269.13
2023-03-26T17:00:45.844Z,98275.19
2023-03-26T17:03:26.573Z,98280.41
2023-03-26T17:06:03.409Z,98276.53
2023-03-26T17:08:40.691Z,98295.25
2023-03-26T17:11:21.828Z,98294.09
2023-03-26T17:14:00.701Z,98293.06
2023-03-26T17:16:34.452Z,98292.00
2023-03-26T17:19:14.193Z,98298.28
2023-03-26T17:21:54.300Z,98306.38
2023-03-26T17:24:34.848Z,98309.91
2023-03-26T17:27:32.105Z,98310.09
2023-03-26T17:30:02.687Z,98314.53
2023-03-26T17:32:55.224Z,98301.28
2023-03-26T17:35:45.528Z,98303.16
2023-03-26T17:38:50.115Z,98301.91
2023-03-26T17:41:52.039Z,98301.00
2023-03-26T17:44:41.093Z,98296.63
2023-03-26T17:47:19.975Z,98301.25
2023-03-26T17:49:51.108Z,98301.44
2023-03-26T17:52:23.826Z,98292.38
2023-03-26T17:54:54.746Z,98298.41
2023-03-26T17:57:25.633Z,98301.31
2023-03-26T17:59:56.925Z,98303.56
2023-03-26T18:02:34.377Z,98304.41
2023-03-26T18:05:04.246Z,98303.56
2023-03-26T18:08:15.556Z,98314.47
2023-03-26T18:11:10.137Z,98316.38
2023-03-26T18:14:11.788Z,98312.81
2023-03-26T18:16:42.017Z,98308.03
2023-03-26T18:19:13.414Z,98312.63
2023-03-26T18:21:41.957Z,98310.69
2023-03-26T18:24:15.199Z,98306.75
2023-03-26T18:26:44.415Z,98304.03
2023-03-26T18:29:21.509Z,98309.84
2023-03-26T18:31:52.567Z,98308.56
2023-03-26T18:34:20.432Z,98315.59
2023-03-26T18:36:58.778Z,98313.59
2023-03-26T18:39:26.005Z,98310.88
2023-03-26T18:41:53.460Z,98309.78
2023-03-26T18:44:21.192Z,98315.03
2023-03-26T18:46:48.486Z,98322.69
2023-03-26T18:49:16.915Z,98314.50
2023-03-26T18:51:56.280Z,98310.09
2023-03-26T18:54:31.932Z,98314.72
2023-03-26T18:57:15.848Z,98316.75
2023-03-26T18:59:44.032Z,98320.69
2023-03-26T19:02:12.948Z,98320.13
2023-03-26T19:04:42.748Z,98315.66
2023-03-26T19:07:15.788Z,98315.59
2023-03-26T19:09:44.903Z,98319.97
2023-03-26T19:12:17.285Z,98325.22
2023-03-26T19:14:53.889Z,98322.69
2023-03-26T19:17:22.551Z,98327.53
2023-03-26T19:19:50.410Z,98328.19
2023-03-26T19:22:19.548Z,98330.31
2023-03-26T19:24:53.829Z,98331.34
2023-03-26T19:27:21.101Z,98334.13
2023-03-26T19:29:48.408Z,98335.56
2023-03-26T19:32:19.141Z,98336.84
2023-03-26T19:34:47.750Z,98328.53
2023-03-26T19:37:20.542Z,98335.63
2023-03-26T19:39:51.519Z,98337.28
2023-03-26T19:42:23.309Z,98337.53
2023-03-26T19:44:50.718Z,98327.91
2023-03-26T19:47:22.037Z,98331.47
2023-03-26T19:49:54.337Z,98336.06
2023-03-26T19:52:24.856Z,98336.72
2023-03-26T19:54:59.677Z,98339.69
2023-03-26T19:57:29.824Z,98342.41
2023-03-26T19:59:57.611Z,98342.41
2023-03-26T20:02:25.342Z,98348.88
2023-03-26T20:04:52.770Z,98344.91
2023-03-26T20:07:21.643Z,98347.63
2023-03-26T20:10:05.964Z,98343.38
2023-03-26T20:12:33.265Z,98348.63
2023-03-26T20:15:00.836Z,98351.50
2023-03-26T20:17:28.252Z,98353.00
2023-03-26T20:19:55.494Z,98352.16
2023-03-26T20:22:22.712Z,98351.50
2023-03-26T20:24:49.956Z,98361.88
2023-03-26T20:27:18.631Z,98362.63
2023-03-26T20:29:45.860Z,98366.19
2023-03-26T20:32:20.890Z,98377.78
2023-03-26T20:34:48.645Z,98378.63
2023-03-26T20:37:16.175Z,98379.47
2023-03-26T20:39:43.721Z,98376.13
2023-03-26T20:42:11.423Z,98375.44
2023-03-26T20:44:40.254Z,98373.16
2023-03-26T20:47:09.350Z,98371.50
2023-03-26T20:49:36.792Z,98379.91
2023-03-26T20:52:04.066Z,98380.81
2023-03-26T20:54:31.238Z,98394.56
2023-03-26T20:56:58.513Z,98396.44
2023-03-26T20:59:27.336Z,98400.25
2023-03-26T21:01:57.910Z,98399.78
2023-03-26T21:04:26.560Z,98401.19
2023-03-26T21:07:00.233Z,98403.03
2023-03-26T21:09:28.716Z,98400.09
2023-03-26T21:12:01.617Z,98413.28
2023-03-26T21:14:32.759Z,98421.59
2023-03-26T21:17:02.055Z,98420.03
2023-03-26T21:19:30.000Z,98428.00
2023-03-26T21:22:09.347Z,98431.75
2023-03-26T21:24:48.217Z,98438.50
2023-03-26T21:27:22.996Z,98446.22
2023-03-26T21:29:50.756Z,98448.47
2023-03-26T21:32:20.195Z,98452.03
2023-03-26T21:34:57.587Z,98452.66
2023-03-26T21:37:26.542Z,98463.31
2023-03-26T21:39:54.264Z,98462.09
2023-03-26T21:42:21.927Z,98473.53
2023-03-26T21:44:49.444Z,98468.22
2023-03-26T21:47:17.014Z,98468.69
2023-03-26T21:49:46.214Z,98486.88
2023-03-26T21:52:15.251Z,98474.63
2023-03-26T21:54:43.949Z,98493.78
2023-03-26T21:57:25.375Z,98493.97
2023-03-26T22:00:02.196Z,98501.56
2023-03-26T22:02:50.134Z,98500.75
2023-03-26T22:05:23.214Z,98504.19
2023-03-26T22:07:54.427Z,98519.28
2023-03-26T22:10:22.134Z,98513.94
2023-03-26T22:12:49.813Z,98522.06
2023-03-26T22:15:17.714Z,98522.59
2023-03-26T22:17:45.389Z,98541.75
2023-03-26T22:20:14.482Z,98538.22
2023-03-26T22:22:43.153Z,98552.41
2023-03-26T22:25:10.322Z,98558.72
2023-03-26T22:27:44.015Z,98578.00
2023-03-26T22:30:13.130Z,98566.38
2023-03-26T22:32:40.401Z,98571.63
2023-03-26T22:35:08.267Z,98579.78
2023-03-26T22:37:35.546Z,98591.78
2023-03-26T22:40:04.487Z,98598.22
2023-03-26T22:42:31.643Z,98588.63
2023-03-26T22:44:58.838Z,98605.72
2023-03-26T22:47:26.232Z,98618.22
2023-03-26T22:49:53.470Z,98619.56
2023-03-26T22:52:20.625Z,98630.22
2023-03-26T22:54:47.781Z,98631.06
2023-03-26T22:57:16.462Z,98628.06
2023-03-26T22:59:43.684Z,98651.03
2023-03-26T23:02:11.111Z,98658.31
2023-03-26T23:04:38.544Z,98660.84
2023-03-26T23:07:06.180Z,98652.38
2023-03-26T23:09:33.369Z,98658.16
2023-03-26T23:12:00.616Z,98671.13
2023-03-26T23:14:29.386Z,98678.91
2023-03-26T23:16:56.518Z,98684.16
2023-03-26T23:19:23.794Z,98691.41
2023-03-26T23:21:51.013Z,98707.13
2023-03-26T23:24:18.217Z,98698.31
2023-03-26T23:26:50.474Z,98718.78
2023-03-26T23:29:18.403Z,98720.81
2023-03-26T23:31:47.156Z,98728.25
2023-03-26T23:34:14.400Z,98730.91
2023-03-26T23:36:41.593Z,98735.50
2023-03-26T23:39:08.870Z,98744.78
2023-03-26T23:41:36.167Z,98748.00
2023-03-26T23:44:03.834Z,98751.56
2023-03-26T23:46:31.254Z,98766.75
2023-03-26T23:49:00.210Z,98777.22
2023-03-26T23:51:28.045Z,98781.75
2023-03-26T23:53:55.381Z,98774.69
2023-03-26T23:56:22.558Z,98793.78
2023-03-26T23:58:49.737Z,98805.09
